Lotts, Georgia
Current Conditions -  °F | °C
As of 2:15 AM on Sunday 23 Nov 2014 (Local Time) from KDQH Reporting Station
Moderate Rain Moderate Rain  
Wind Chill: 61°   Ceiling: 500
Heat Index: 61°   Visibility: 4mi
Dew Point: 59°   Wind: 8mph
Humidity: 94%   Direction: 70°ENE
Pressure: 30.11"   Gusts: NA
Location:  31.6888°N, 82.911°W
Report Text: KDQH 230715Z AUTO 07007KT 4SM RA OVC005 16/15 A3011 RMK AO2
Loading
Personal Weather Stations






























Interactive Weather Map New forecast layout! Learn more

10-Day Weather Forecast

Advertisements
Track Severe Weather on mobile